createdAt,value
2023-05-07T00:00:57.508Z,8.90
2023-05-07T00:02:29.370Z,8.90
2023-05-07T00:04:01.373Z,8.89
2023-05-07T00:05:33.474Z,8.88
2023-05-07T00:07:05.588Z,8.87
2023-05-07T00:08:37.377Z,8.87
2023-05-07T00:10:10.007Z,8.88
2023-05-07T00:11:42.012Z,8.89
2023-05-07T00:13:13.858Z,8.88
2023-05-07T00:14:46.669Z,8.88
2023-05-07T00:16:18.620Z,8.88
2023-05-07T00:17:50.509Z,8.87
2023-05-07T00:19:22.360Z,8.86
2023-05-07T00:20:54.219Z,8.86
2023-05-07T00:22:26.134Z,8.86
2023-05-07T00:23:57.903Z,8.86
2023-05-07T00:25:29.753Z,8.85
2023-05-07T00:27:01.534Z,8.86
2023-05-07T00:28:34.076Z,8.88
2023-05-07T00:30:06.731Z,8.87
2023-05-07T00:31:39.779Z,8.89
2023-05-07T00:33:11.954Z,8.87
2023-05-07T00:34:44.521Z,8.87
2023-05-07T00:36:16.336Z,8.86
2023-05-07T00:37:49.603Z,8.86
2023-05-07T00:39:21.545Z,8.85
2023-05-07T00:40:53.914Z,8.83
2023-05-07T00:42:25.738Z,8.81
2023-05-07T00:43:57.917Z,8.79
2023-05-07T00:45:29.966Z,8.79
2023-05-07T00:47:04.456Z,8.77
2023-05-07T00:48:36.328Z,8.76
2023-05-07T00:50:10.030Z,8.76
2023-05-07T00:51:42.061Z,8.74
2023-05-07T00:53:14.364Z,8.74
2023-05-07T00:54:46.401Z,8.75
2023-05-07T00:56:18.383Z,8.74
2023-05-07T00:57:51.407Z,8.73
2023-05-07T00:59:23.555Z,8.72
2023-05-07T01:00:55.755Z,8.74
2023-05-07T01:02:28.035Z,8.73
2023-05-07T01:03:59.932Z,8.75
2023-05-07T01:05:32.316Z,8.74
2023-05-07T01:07:05.046Z,8.75
2023-05-07T01:08:37.630Z,8.75
2023-05-07T01:10:11.913Z,8.75
2023-05-07T01:11:45.010Z,8.74
2023-05-07T01:13:17.422Z,8.75
2023-05-07T01:14:50.968Z,8.76
2023-05-07T01:16:23.167Z,8.76
2023-05-07T01:17:57.984Z,8.76
2023-05-07T01:19:36.489Z,8.78
2023-05-07T01:21:12.051Z,8.79
2023-05-07T01:22:44.387Z,8.79
2023-05-07T01:24:17.342Z,8.78
2023-05-07T01:25:56.115Z,8.77
2023-05-07T01:27:30.530Z,8.76
2023-05-07T01:29:02.517Z,8.76
2023-05-07T01:30:37.108Z,8.77
2023-05-07T01:32:14.311Z,8.78
2023-05-07T01:33:47.722Z,8.77
2023-05-07T01:35:28.098Z,8.76
2023-05-07T01:37:00.729Z,8.77
2023-05-07T01:38:32.836Z,8.78
2023-05-07T01:40:05.968Z,8.78
2023-05-07T01:41:38.467Z,8.80
2023-05-07T01:43:10.768Z,8.79
2023-05-07T01:44:43.248Z,8.78
2023-05-07T01:46:16.455Z,8.79
2023-05-07T01:47:48.387Z,8.78
2023-05-07T01:49:20.874Z,8.78
2023-05-07T01:50:52.943Z,8.79
2023-05-07T01:52:26.239Z,8.79
2023-05-07T01:53:59.172Z,8.79
2023-05-07T01:55:31.006Z,8.79
2023-05-07T01:57:04.144Z,8.80
2023-05-07T01:58:36.023Z,8.81
2023-05-07T02:00:10.351Z,8.82
2023-05-07T02:01:48.863Z,8.83
2023-05-07T02:03:21.137Z,8.86
2023-05-07T02:05:02.689Z,8.86
2023-05-07T02:06:34.965Z,8.87
2023-05-07T02:08:10.052Z,8.88
2023-05-07T02:09:42.211Z,8.89
2023-05-07T02:11:14.560Z,8.89
2023-05-07T02:12:46.697Z,8.88
2023-05-07T02:14:18.581Z,8.88
2023-05-07T02:15:51.758Z,8.88
2023-05-07T02:17:24.168Z,8.90
2023-05-07T02:18:56.507Z,8.88
2023-05-07T02:20:28.625Z,8.88
2023-05-07T02:22:00.533Z,8.87
2023-05-07T02:23:36.074Z,8.89
2023-05-07T02:25:08.482Z,8.90
2023-05-07T02:26:42.097Z,8.91
2023-05-07T02:28:14.488Z,8.89
2023-05-07T02:29:59.242Z,8.91
2023-05-07T02:31:31.286Z,8.91
2023-05-07T02:33:03.201Z,8.90
2023-05-07T02:34:35.082Z,8.92
2023-05-07T02:36:11.053Z,8.91
2023-05-07T02:38:00.720Z,8.92
2023-05-07T02:39:32.713Z,8.91
2023-05-07T02:41:04.715Z,8.91
2023-05-07T02:42:36.734Z,8.91
2023-05-07T02:44:08.595Z,8.92
2023-05-07T02:45:40.808Z,8.91
2023-05-07T02:47:15.410Z,8.90
2023-05-07T02:48:48.581Z,8.90
2023-05-07T02:50:20.449Z,8.89
2023-05-07T02:51:52.353Z,8.90
2023-05-07T02:53:28.312Z,8.90
2023-05-07T02:55:00.131Z,8.88
2023-05-07T02:56:32.284Z,8.87
2023-05-07T02:58:04.078Z,8.89
2023-05-07T02:59:38.813Z,8.87
2023-05-07T03:01:10.748Z,8.88
2023-05-07T03:03:02.867Z,8.85
2023-05-07T03:04:34.958Z,8.83
2023-05-07T03:06:07.809Z,8.82
2023-05-07T03:07:39.646Z,8.82
2023-05-07T03:09:11.968Z,8.79
2023-05-07T03:10:43.899Z,8.76
2023-05-07T03:12:15.925Z,8.75
2023-05-07T03:13:47.926Z,8.74
2023-05-07T03:15:19.861Z,8.73
2023-05-07T03:16:51.772Z,8.71
2023-05-07T03:18:23.784Z,8.70
2023-05-07T03:19:55.964Z,8.68
2023-05-07T03:21:28.033Z,8.68
2023-05-07T03:23:00.098Z,8.65
2023-05-07T03:24:32.144Z,8.63
2023-05-07T03:26:04.250Z,8.62
2023-05-07T03:27:36.072Z,8.62
2023-05-07T03:29:07.989Z,8.61
2023-05-07T03:30:39.912Z,8.61
2023-05-07T03:32:11.712Z,8.60
2023-05-07T03:33:57.698Z,8.59
2023-05-07T03:35:29.976Z,8.59
2023-05-07T03:37:01.845Z,8.57
2023-05-07T03:38:33.637Z,8.54
2023-05-07T03:40:07.051Z,8.52
2023-05-07T03:41:46.737Z,8.49
2023-05-07T03:43:18.739Z,8.46
2023-05-07T03:44:55.538Z,8.46
2023-05-07T03:46:27.663Z,8.42
2023-05-07T03:48:00.235Z,8.39
2023-05-07T03:49:32.234Z,8.36
2023-05-07T03:51:04.520Z,8.35
2023-05-07T03:52:38.479Z,8.31
2023-05-07T03:54:12.052Z,8.28
2023-05-07T03:55:48.148Z,8.26
2023-05-07T03:57:20.379Z,8.25
2023-05-07T03:58:52.321Z,8.22
2023-05-07T04:00:24.814Z,8.23
2023-05-07T04:01:56.698Z,8.22
2023-05-07T04:03:30.890Z,8.20
2023-05-07T04:05:05.137Z,8.19
2023-05-07T04:06:36.972Z,8.17
2023-05-07T04:08:08.833Z,8.15
2023-05-07T04:09:45.412Z,8.18
2023-05-07T04:11:17.208Z,8.17
2023-05-07T04:12:49.087Z,8.19
2023-05-07T04:14:25.481Z,8.20
2023-05-07T04:15:57.915Z,8.21
2023-05-07T04:17:30.503Z,8.20
2023-05-07T04:19:02.347Z,8.21
2023-05-07T04:20:37.510Z,8.23
2023-05-07T04:22:13.133Z,8.25
2023-05-07T04:23:45.281Z,8.25
2023-05-07T04:25:18.935Z,8.26
2023-05-07T04:26:52.357Z,8.30
2023-05-07T04:28:26.965Z,8.33
2023-05-07T04:29:59.105Z,8.33
2023-05-07T04:31:31.843Z,8.37
2023-05-07T04:33:04.641Z,8.40
2023-05-07T04:34:37.171Z,8.42
2023-05-07T04:36:09.218Z,8.45
2023-05-07T04:37:47.994Z,8.51
2023-05-07T04:39:19.799Z,8.56
2023-05-07T04:40:54.195Z,8.59
2023-05-07T04:42:29.385Z,8.63
2023-05-07T04:44:01.277Z,8.66
2023-05-07T04:45:36.505Z,8.69
2023-05-07T04:47:08.317Z,8.71
2023-05-07T04:48:40.534Z,8.71
2023-05-07T04:50:13.349Z,8.73
2023-05-07T04:51:46.467Z,8.77
2023-05-07T04:53:21.206Z,8.80
2023-05-07T04:54:53.972Z,8.81
2023-05-07T04:56:29.309Z,8.85
2023-05-07T04:58:02.714Z,8.88
2023-05-07T04:59:36.672Z,8.90
2023-05-07T05:01:08.526Z,8.95
2023-05-07T05:02:40.617Z,8.98
2023-05-07T05:04:13.270Z,9.00
2023-05-07T05:05:46.246Z,9.03
2023-05-07T05:07:18.106Z,9.05
2023-05-07T05:08:49.919Z,9.09
2023-05-07T05:10:24.634Z,9.10
2023-05-07T05:11:57.179Z,9.14
2023-05-07T05:13:29.465Z,9.19
2023-05-07T05:15:01.320Z,9.20
2023-05-07T05:16:33.513Z,9.25
2023-05-07T05:18:05.685Z,9.25
2023-05-07T05:19:38.172Z,9.31
2023-05-07T05:21:10.389Z,9.32
2023-05-07T05:22:43.542Z,9.36
2023-05-07T05:24:16.837Z,9.37
2023-05-07T05:25:48.642Z,9.38
2023-05-07T05:27:21.006Z,9.39
2023-05-07T05:28:52.855Z,9.41
2023-05-07T05:30:27.012Z,9.44
2023-05-07T05:31:59.162Z,9.47
2023-05-07T05:33:32.361Z,9.48
2023-05-07T05:35:09.124Z,9.52
2023-05-07T05:36:41.543Z,9.55
2023-05-07T05:38:14.687Z,9.57
2023-05-07T05:39:46.857Z,9.60
2023-05-07T05:41:19.205Z,9.61
2023-05-07T05:42:51.024Z,9.64
2023-05-07T05:44:23.326Z,9.66
2023-05-07T05:45:56.862Z,9.70
2023-05-07T05:47:28.785Z,9.72
2023-05-07T05:49:01.843Z,9.76
2023-05-07T05:50:33.639Z,9.81
2023-05-07T05:52:05.574Z,9.82
2023-05-07T05:53:38.180Z,9.85
2023-05-07T05:55:11.354Z,9.85
2023-05-07T05:56:43.915Z,9.88
2023-05-07T05:58:16.503Z,9.88
2023-05-07T05:59:54.974Z,9.89
2023-05-07T06:01:26.912Z,9.88
2023-05-07T06:03:00.995Z,9.88
2023-05-07T06:04:33.437Z,9.89
2023-05-07T06:06:05.503Z,9.89
2023-05-07T06:07:37.528Z,9.87
2023-05-07T06:09:09.408Z,9.88
2023-05-07T06:10:45.905Z,9.86
2023-05-07T06:12:18.085Z,9.85
2023-05-07T06:13:49.929Z,9.83
2023-05-07T06:15:21.988Z,9.84
2023-05-07T06:16:53.993Z,9.84
2023-05-07T06:18:26.258Z,9.85
2023-05-07T06:19:58.139Z,9.86
2023-05-07T06:21:29.952Z,9.85
2023-05-07T06:23:01.821Z,9.85
2023-05-07T06:24:35.330Z,9.85
2023-05-07T06:26:07.616Z,9.84
2023-05-07T06:27:44.413Z,9.86
2023-05-07T06:29:16.254Z,9.87
2023-05-07T06:30:50.095Z,9.87
2023-05-07T06:32:23.211Z,9.87
2023-05-07T06:33:56.601Z,9.88
2023-05-07T06:35:31.700Z,9.88
2023-05-07T06:37:03.869Z,9.91
2023-05-07T06:39:01.561Z,9.93
2023-05-07T06:40:33.423Z,9.94
2023-05-07T06:42:06.198Z,9.96
2023-05-07T06:43:39.242Z,9.96
2023-05-07T06:45:35.581Z,9.99
2023-05-07T06:47:07.699Z,10.00
2023-05-07T06:48:40.761Z,10.01
2023-05-07T06:50:12.876Z,10.01
2023-05-07T06:51:45.044Z,10.02
2023-05-07T06:53:16.913Z,10.03
2023-05-07T06:54:48.976Z,10.02
2023-05-07T06:56:24.035Z,10.00
2023-05-07T06:57:55.922Z,10.00
2023-05-07T06:59:29.321Z,9.98
2023-05-07T07:01:01.270Z,9.96
2023-05-07T07:02:33.203Z,9.96
2023-05-07T07:04:05.189Z,9.96
2023-05-07T07:05:37.510Z,9.98
2023-05-07T07:07:09.572Z,9.96
2023-05-07T07:08:41.631Z,9.96
2023-05-07T07:10:13.588Z,9.96
2023-05-07T07:11:45.531Z,9.96
2023-05-07T07:13:17.484Z,9.95
2023-05-07T07:14:49.353Z,9.94
2023-05-07T07:16:22.576Z,9.93
2023-05-07T07:17:56.860Z,9.92
2023-05-07T07:19:29.805Z,9.92
2023-05-07T07:21:02.538Z,9.89
2023-05-07T07:22:34.337Z,9.82
2023-05-07T07:24:06.546Z,9.81
2023-05-07T07:25:38.397Z,9.78
2023-05-07T07:27:10.954Z,9.78
2023-05-07T07:28:48.591Z,9.75
2023-05-07T07:30:23.908Z,9.78
2023-05-07T07:31:55.965Z,9.79
2023-05-07T07:33:28.079Z,9.78
2023-05-07T07:34:59.987Z,9.79
2023-05-07T07:36:42.848Z,9.80
2023-05-07T07:38:17.465Z,9.83
2023-05-07T07:39:49.438Z,9.88
2023-05-07T07:41:21.466Z,9.90
2023-05-07T07:42:54.104Z,9.91
2023-05-07T07:44:26.677Z,9.89
2023-05-07T07:46:03.577Z,9.91
2023-05-07T07:47:37.156Z,9.92
2023-05-07T07:49:09.064Z,9.94
2023-05-07T07:50:45.454Z,9.96
2023-05-07T07:52:20.392Z,9.98
2023-05-07T07:53:52.277Z,9.97
2023-05-07T07:55:24.350Z,10.02
2023-05-07T07:56:58.542Z,10.05
2023-05-07T07:58:30.648Z,10.09
2023-05-07T08:00:04.072Z,10.12
2023-05-07T08:01:37.751Z,10.14
2023-05-07T08:03:12.923Z,10.18
2023-05-07T08:04:48.905Z,10.20
2023-05-07T08:06:20.853Z,10.22
2023-05-07T08:07:54.301Z,10.26
2023-05-07T08:09:31.165Z,10.31
2023-05-07T08:11:06.055Z,10.29
2023-05-07T08:12:40.657Z,10.28
2023-05-07T08:14:12.898Z,10.29
2023-05-07T08:15:44.985Z,10.29
2023-05-07T08:17:18.186Z,10.28
2023-05-07T08:18:51.233Z,10.27
2023-05-07T08:20:23.500Z,10.27
2023-05-07T08:21:56.358Z,10.29
2023-05-07T08:23:29.586Z,10.30
2023-05-07T08:25:02.539Z,10.24
2023-05-07T08:26:34.569Z,10.25
2023-05-07T08:28:08.358Z,10.26
2023-05-07T08:29:42.747Z,10.28
2023-05-07T08:31:15.170Z,10.28
2023-05-07T08:32:49.710Z,10.31
2023-05-07T08:34:23.226Z,10.32
2023-05-07T08:35:56.637Z,10.32
2023-05-07T08:37:28.583Z,10.33
2023-05-07T08:39:01.757Z,10.33
2023-05-07T08:40:38.959Z,10.37
2023-05-07T08:42:16.895Z,10.39
2023-05-07T08:43:53.778Z,10.39
2023-05-07T08:45:28.615Z,10.41
2023-05-07T08:47:02.397Z,10.47
2023-05-07T08:48:36.351Z,10.48
2023-05-07T08:50:17.018Z,10.54
2023-05-07T08:51:49.268Z,10.56
2023-05-07T08:53:22.135Z,10.60
2023-05-07T08:54:55.276Z,10.61
2023-05-07T08:56:27.840Z,10.67
2023-05-07T08:58:01.957Z,10.70
2023-05-07T08:59:35.778Z,10.74
2023-05-07T09:01:10.097Z,10.79
2023-05-07T09:02:42.569Z,10.81
2023-05-07T09:04:15.979Z,10.85
2023-05-07T09:05:48.356Z,10.87
2023-05-07T09:07:23.601Z,10.91
2023-05-07T09:08:56.279Z,10.94
2023-05-07T09:10:34.578Z,10.94
2023-05-07T09:12:07.277Z,10.94
2023-05-07T09:13:40.622Z,10.97
2023-05-07T09:15:13.569Z,11.00
2023-05-07T09:16:47.756Z,11.03
2023-05-07T09:18:19.900Z,11.10
2023-05-07T09:19:54.676Z,11.15
2023-05-07T09:21:26.945Z,11.18
2023-05-07T09:23:00.603Z,11.21
2023-05-07T09:24:36.243Z,11.26
2023-05-07T09:26:12.964Z,11.28
2023-05-07T09:27:46.706Z,11.32
2023-05-07T09:29:19.327Z,11.36
2023-05-07T09:30:51.420Z,11.35
2023-05-07T09:32:23.505Z,11.39
2023-05-07T09:33:57.086Z,11.41
2023-05-07T09:35:31.609Z,11.39
2023-05-07T09:37:09.290Z,11.36
2023-05-07T09:38:41.396Z,11.31
2023-05-07T09:40:23.585Z,11.27
2023-05-07T09:41:56.374Z,11.29
2023-05-07T09:43:37.184Z,11.30
2023-05-07T09:45:11.201Z,11.32
2023-05-07T09:46:47.921Z,11.36
2023-05-07T09:48:26.953Z,11.41
2023-05-07T09:50:01.178Z,11.47
2023-05-07T09:51:45.894Z,11.42
2023-05-07T09:53:18.666Z,11.50
2023-05-07T09:54:51.489Z,11.52
2023-05-07T09:56:26.595Z,11.49
2023-05-07T09:58:00.051Z,11.48
2023-05-07T09:59:34.281Z,11.49
2023-05-07T10:01:11.880Z,11.47
2023-05-07T10:02:49.540Z,11.47
2023-05-07T10:04:23.440Z,11.47
2023-05-07T10:05:59.421Z,11.53
2023-05-07T10:07:32.100Z,11.59
2023-05-07T10:09:09.913Z,11.66
2023-05-07T10:10:42.416Z,11.76
2023-05-07T10:12:18.929Z,11.79
2023-05-07T10:13:51.599Z,11.86
2023-05-07T10:15:25.018Z,11.92
2023-05-07T10:17:00.514Z,11.97
2023-05-07T10:18:34.313Z,12.00
2023-05-07T10:20:12.738Z,12.03
2023-05-07T10:22:00.886Z,12.03
2023-05-07T10:23:35.244Z,12.03
2023-05-07T10:25:15.509Z,12.02
2023-05-07T10:26:52.380Z,12.01
2023-05-07T10:28:27.341Z,12.02
2023-05-07T10:30:16.064Z,11.97
2023-05-07T10:31:59.543Z,11.99
2023-05-07T10:33:33.771Z,11.98
2023-05-07T10:35:14.871Z,11.99
2023-05-07T10:36:47.848Z,11.99
2023-05-07T10:38:20.369Z,12.05
2023-05-07T10:39:53.618Z,12.08
2023-05-07T10:41:25.916Z,12.11
2023-05-07T10:43:03.759Z,12.15
2023-05-07T10:44:41.422Z,12.18
2023-05-07T10:46:22.329Z,12.20
2023-05-07T10:48:29.616Z,12.18
2023-05-07T10:50:07.700Z,12.25
2023-05-07T10:51:46.943Z,12.35
2023-05-07T10:53:28.646Z,12.47
2023-05-07T10:55:18.799Z,12.65
2023-05-07T10:56:58.300Z,12.84
2023-05-07T10:58:35.995Z,12.95
2023-05-07T11:02:12.331Z,13.24
2023-05-07T11:04:15.173Z,13.38
2023-05-07T11:06:12.233Z,13.49
2023-05-07T11:07:59.684Z,13.66
2023-05-07T11:09:52.899Z,13.66
2023-05-07T11:11:54.246Z,13.72
2023-05-07T11:13:46.822Z,13.74
2023-05-07T11:15:38.702Z,13.78
2023-05-07T11:17:16.897Z,13.78
2023-05-07T11:18:57.930Z,13.79
2023-05-07T11:20:51.731Z,13.78
2023-05-07T11:22:56.075Z,13.88
2023-05-07T11:25:00.280Z,13.97
2023-05-07T11:26:43.697Z,14.03
2023-05-07T11:28:16.000Z,14.13
2023-05-07T11:29:57.994Z,14.23
2023-05-07T11:31:31.132Z,14.30
2023-05-07T11:33:06.660Z,14.38
2023-05-07T11:34:39.545Z,14.46
2023-05-07T11:36:11.617Z,14.49
2023-05-07T11:37:49.422Z,14.58
2023-05-07T11:39:48.041Z,14.53
2023-05-07T11:41:21.805Z,14.64
2023-05-07T11:42:53.621Z,14.66
2023-05-07T11:44:25.539Z,14.67
2023-05-07T11:46:12.922Z,14.70
2023-05-07T11:47:45.129Z,14.66
2023-05-07T11:49:18.273Z,14.66
2023-05-07T11:51:02.664Z,14.61
2023-05-07T11:52:35.470Z,14.65
2023-05-07T11:54:09.881Z,14.60
2023-05-07T11:55:41.692Z,14.61
2023-05-07T11:57:16.770Z,14.59
2023-05-07T11:58:49.353Z,14.60
2023-05-07T12:00:21.178Z,14.57
2023-05-07T12:01:53.005Z,14.58
2023-05-07T12:03:24.845Z,14.61
2023-05-07T12:04:56.978Z,14.62
2023-05-07T12:06:28.812Z,14.59
2023-05-07T12:08:00.614Z,14.61
2023-05-07T12:09:34.746Z,14.62
2023-05-07T12:11:13.755Z,14.61
2023-05-07T12:12:47.751Z,14.65
2023-05-07T12:14:19.778Z,14.66
2023-05-07T12:15:56.230Z,14.67
2023-05-07T12:17:28.110Z,14.68
2023-05-07T12:19:00.367Z,14.67
2023-05-07T12:20:32.188Z,14.69
2023-05-07T12:22:04.907Z,14.73
2023-05-07T12:23:38.258Z,14.72
2023-05-07T12:25:10.777Z,14.74
2023-05-07T12:26:42.883Z,14.77
2023-05-07T12:28:19.128Z,14.78
2023-05-07T12:29:51.956Z,14.81
2023-05-07T12:31:23.895Z,14.81
2023-05-07T12:32:56.055Z,14.84
2023-05-07T12:34:29.216Z,14.82
2023-05-07T12:36:05.101Z,14.80
2023-05-07T12:37:37.113Z,14.80
2023-05-07T12:39:10.039Z,14.78
2023-05-07T12:40:44.418Z,14.81
2023-05-07T12:42:17.868Z,14.83
2023-05-07T12:43:49.679Z,14.86
2023-05-07T12:45:21.645Z,14.96
2023-05-07T12:46:53.799Z,15.03
2023-05-07T12:48:28.182Z,15.10
2023-05-07T12:50:00.603Z,15.17
2023-05-07T12:51:32.518Z,15.23
2023-05-07T12:53:09.153Z,15.26
2023-05-07T12:54:41.096Z,15.31
2023-05-07T12:56:12.942Z,15.37
2023-05-07T12:57:49.616Z,15.45
2023-05-07T12:59:42.791Z,15.51
2023-05-07T13:01:16.809Z,15.61
2023-05-07T13:02:48.988Z,15.63
2023-05-07T13:04:20.974Z,15.69
2023-05-07T13:05:53.445Z,15.71
2023-05-07T13:07:26.466Z,15.76
2023-05-07T13:08:58.309Z,15.79
2023-05-07T13:10:30.483Z,15.85
2023-05-07T13:12:02.927Z,15.85
2023-05-07T13:13:36.388Z,15.89
2023-05-07T13:15:08.789Z,15.92
2023-05-07T13:16:40.814Z,15.99
2023-05-07T13:18:12.833Z,15.99
2023-05-07T13:19:44.692Z,16.01
2023-05-07T13:21:16.559Z,16.05
2023-05-07T13:22:48.419Z,16.10
2023-05-07T13:24:20.232Z,16.17
2023-05-07T13:25:53.756Z,16.23
2023-05-07T13:27:25.622Z,16.29
2023-05-07T13:28:57.495Z,16.37
2023-05-07T13:30:29.652Z,16.46
2023-05-07T13:32:01.534Z,16.54
2023-05-07T13:33:33.386Z,16.57
2023-05-07T13:35:05.843Z,16.59
2023-05-07T13:36:40.725Z,16.64
2023-05-07T13:38:12.609Z,16.68
2023-05-07T13:39:44.455Z,16.72
2023-05-07T13:41:16.443Z,16.76
2023-05-07T13:42:48.324Z,16.77
2023-05-07T13:44:20.145Z,16.78
2023-05-07T13:45:51.997Z,16.73
2023-05-07T13:47:24.735Z,16.69
2023-05-07T13:48:57.055Z,16.66
2023-05-07T13:50:31.016Z,16.64
2023-05-07T13:52:03.180Z,16.58
2023-05-07T13:53:35.029Z,16.62
2023-05-07T13:55:07.520Z,16.60
2023-05-07T13:56:39.434Z,16.55
2023-05-07T13:58:11.695Z,16.50
2023-05-07T13:59:43.751Z,16.44
2023-05-07T14:01:15.668Z,16.33
2023-05-07T14:02:47.649Z,16.33
2023-05-07T14:04:19.557Z,16.29
2023-05-07T14:05:51.366Z,16.27
2023-05-07T14:07:23.196Z,16.23
2023-05-07T14:08:54.986Z,16.23
2023-05-07T14:10:27.106Z,16.22
2023-05-07T14:12:00.011Z,16.21
2023-05-07T14:13:31.999Z,16.24
2023-05-07T14:15:04.726Z,16.24
2023-05-07T14:16:36.642Z,16.21
2023-05-07T14:18:08.492Z,16.20
2023-05-07T14:19:40.473Z,16.17
2023-05-07T14:21:12.251Z,16.18
2023-05-07T14:22:44.065Z,16.14
2023-05-07T14:24:27.167Z,16.11
2023-05-07T14:26:06.619Z,16.07
2023-05-07T14:27:38.587Z,15.97
2023-05-07T14:29:10.369Z,15.96
2023-05-07T14:30:42.185Z,15.95
2023-05-07T14:32:14.006Z,15.91
2023-05-07T14:33:45.809Z,15.90
2023-05-07T14:35:18.249Z,15.85
2023-05-07T14:36:50.488Z,15.85
2023-05-07T14:38:22.298Z,15.79
2023-05-07T14:39:54.138Z,15.80
2023-05-07T14:41:25.990Z,15.76
2023-05-07T14:42:58.956Z,15.72
2023-05-07T14:44:31.719Z,15.69
2023-05-07T14:46:03.738Z,15.65
2023-05-07T14:47:35.775Z,15.65
2023-05-07T14:49:07.930Z,15.60
2023-05-07T14:50:39.833Z,15.58
2023-05-07T14:52:12.625Z,15.53
2023-05-07T14:53:44.495Z,15.52
2023-05-07T14:55:16.382Z,15.50
2023-05-07T14:56:48.217Z,15.48
2023-05-07T14:58:20.441Z,15.47
2023-05-07T14:59:52.256Z,15.43
2023-05-07T15:01:24.100Z,15.41
2023-05-07T15:03:06.654Z,15.37
2023-05-07T15:04:47.081Z,15.35
2023-05-07T15:06:19.154Z,15.32
2023-05-07T15:07:51.407Z,15.33
2023-05-07T15:09:23.440Z,15.28
2023-05-07T15:10:56.465Z,15.24
2023-05-07T15:12:28.297Z,15.22
2023-05-07T15:14:00.149Z,15.22
2023-05-07T15:15:32.024Z,15.20
2023-05-07T15:17:03.993Z,15.13
2023-05-07T15:18:36.044Z,15.05
2023-05-07T15:20:08.335Z,14.97
2023-05-07T15:21:40.144Z,14.93
2023-05-07T15:23:14.124Z,14.89
2023-05-07T15:24:48.949Z,14.82
2023-05-07T15:26:21.661Z,14.81
2023-05-07T15:27:53.599Z,14.75
2023-05-07T15:29:26.229Z,14.77
2023-05-07T15:30:58.082Z,14.75
2023-05-07T15:32:30.207Z,14.75
2023-05-07T15:34:02.203Z,14.75
2023-05-07T15:35:34.457Z,14.73
2023-05-07T15:37:06.546Z,14.69
2023-05-07T15:38:38.370Z,14.68
2023-05-07T15:40:10.488Z,14.63
2023-05-07T15:41:42.362Z,14.60
2023-05-07T15:43:14.240Z,14.48
2023-05-07T15:44:46.119Z,14.45
2023-05-07T15:46:22.301Z,14.38
2023-05-07T15:47:54.252Z,14.32
2023-05-07T15:49:26.361Z,14.27
2023-05-07T15:50:58.257Z,14.19
2023-05-07T15:52:30.566Z,14.14
2023-05-07T15:54:02.494Z,14.09
2023-05-07T15:55:34.910Z,14.01
2023-05-07T15:57:07.403Z,13.97
2023-05-07T15:58:41.200Z,13.96
2023-05-07T16:00:14.462Z,13.94
2023-05-07T16:01:46.347Z,13.88
2023-05-07T16:03:19.147Z,13.86
2023-05-07T16:04:51.327Z,13.86
2023-05-07T16:06:23.255Z,13.83
2023-05-07T16:07:55.265Z,13.80
2023-05-07T16:09:29.129Z,13.74
2023-05-07T16:11:01.320Z,13.70
2023-05-07T16:12:33.133Z,13.65
2023-05-07T16:14:05.017Z,13.60
2023-05-07T16:15:36.990Z,13.57
2023-05-07T16:17:09.049Z,13.55
2023-05-07T16:18:41.191Z,13.50
2023-05-07T16:20:13.483Z,13.48
2023-05-07T16:21:45.392Z,13.45
2023-05-07T16:23:17.280Z,13.43
2023-05-07T16:24:49.153Z,13.39
2023-05-07T16:26:21.394Z,13.37
2023-05-07T16:27:55.013Z,13.29
2023-05-07T16:29:26.877Z,13.29
2023-05-07T16:30:58.861Z,13.21
2023-05-07T16:32:30.765Z,13.17
2023-05-07T16:34:02.633Z,13.13
2023-05-07T16:35:34.524Z,13.08
2023-05-07T16:37:06.921Z,13.05
2023-05-07T16:38:38.876Z,12.98
2023-05-07T16:40:11.263Z,12.91
2023-05-07T16:41:43.871Z,12.85
2023-05-07T16:43:15.926Z,12.78
2023-05-07T16:44:47.808Z,12.70
2023-05-07T16:46:19.706Z,12.63
2023-05-07T16:47:51.681Z,12.56
2023-05-07T16:49:23.645Z,12.54
2023-05-07T16:50:56.173Z,12.50
2023-05-07T16:52:30.272Z,12.47
2023-05-07T16:54:02.610Z,12.46
2023-05-07T16:55:39.043Z,12.42
2023-05-07T16:57:11.225Z,12.40
2023-05-07T16:58:43.124Z,12.39
2023-05-07T17:00:15.486Z,12.37
2023-05-07T17:01:47.387Z,12.36
2023-05-07T17:03:19.720Z,12.35
2023-05-07T17:04:51.741Z,12.35
2023-05-07T17:06:23.616Z,12.35
2023-05-07T17:07:56.446Z,12.37
2023-05-07T17:09:28.412Z,12.36
2023-05-07T17:11:00.268Z,12.34
2023-05-07T17:12:32.247Z,12.34
2023-05-07T17:14:05.605Z,12.35
2023-05-07T17:15:37.720Z,12.34
2023-05-07T17:17:09.650Z,12.33
2023-05-07T17:18:41.520Z,12.29
2023-05-07T17:20:14.290Z,12.27
2023-05-07T17:21:46.387Z,12.23
2023-05-07T17:23:18.512Z,12.17
2023-05-07T17:24:50.325Z,12.12
2023-05-07T17:26:22.688Z,12.07
2023-05-07T17:27:54.538Z,12.02
2023-05-07T17:29:26.512Z,11.95
2023-05-07T17:30:58.370Z,11.92
2023-05-07T17:32:30.364Z,11.82
2023-05-07T17:34:02.296Z,11.73
2023-05-07T17:35:34.257Z,11.67
2023-05-07T17:37:06.093Z,11.56
2023-05-07T17:38:38.733Z,11.46
2023-05-07T17:40:10.982Z,11.39
2023-05-07T17:41:42.991Z,11.28
2023-05-07T17:43:15.867Z,11.21
2023-05-07T17:44:47.724Z,11.10
2023-05-07T17:46:19.595Z,11.01
2023-05-07T17:47:51.698Z,10.93
2023-05-07T17:49:23.827Z,10.85
2023-05-07T17:51:01.913Z,10.74
2023-05-07T17:52:33.816Z,10.64
2023-05-07T17:54:05.720Z,10.59
2023-05-07T17:55:46.618Z,10.48
2023-05-07T17:57:18.450Z,10.46
2023-05-07T18:00:25.277Z,10.33
2023-05-07T18:01:57.273Z,10.27
2023-05-07T18:03:30.161Z,10.17
2023-05-07T18:05:02.185Z,10.11
2023-05-07T18:06:34.121Z,10.05
2023-05-07T18:08:09.201Z,9.99
2023-05-07T18:09:41.321Z,9.94
2023-05-07T18:11:13.190Z,9.89
2023-05-07T18:12:45.054Z,9.80
2023-05-07T18:14:17.046Z,9.75
2023-05-07T18:15:49.072Z,9.72
2023-05-07T18:17:24.398Z,9.67
2023-05-07T18:18:56.660Z,9.64
2023-05-07T18:20:28.551Z,9.57
2023-05-07T18:22:00.355Z,9.52
2023-05-07T18:23:35.695Z,9.44
2023-05-07T18:25:08.590Z,9.41
2023-05-07T18:26:40.469Z,9.35
2023-05-07T18:28:12.265Z,9.30
2023-05-07T18:29:44.193Z,9.25
2023-05-07T18:31:16.089Z,9.20
2023-05-07T18:32:48.299Z,9.16
2023-05-07T18:34:20.204Z,9.10
2023-05-07T18:35:51.986Z,9.05
2023-05-07T18:37:26.123Z,8.99
2023-05-07T18:38:58.719Z,8.91
2023-05-07T18:40:30.540Z,8.86
2023-05-07T18:42:05.332Z,8.80
2023-05-07T18:43:37.179Z,8.75
2023-05-07T18:45:09.675Z,8.69
2023-05-07T18:46:41.998Z,8.64
2023-05-07T18:48:14.071Z,8.59
2023-05-07T18:49:45.930Z,8.51
2023-05-07T18:51:17.967Z,8.46
2023-05-07T18:52:49.868Z,8.43
2023-05-07T18:54:21.683Z,8.38
2023-05-07T18:55:53.692Z,8.34
2023-05-07T18:57:25.818Z,8.29
2023-05-07T18:58:57.745Z,8.24
2023-05-07T19:00:29.631Z,8.22
2023-05-07T19:02:01.529Z,8.17
2023-05-07T19:03:33.924Z,8.14
2023-05-07T19:05:06.521Z,8.09
2023-05-07T19:06:38.621Z,8.04
2023-05-07T19:08:10.574Z,7.99
2023-05-07T19:09:53.634Z,7.96
2023-05-07T19:11:33.458Z,7.92
2023-05-07T19:13:05.468Z,7.86
2023-05-07T19:14:37.429Z,7.81
2023-05-07T19:16:12.593Z,7.76
2023-05-07T19:17:45.051Z,7.72
2023-05-07T19:19:17.160Z,7.68
2023-05-07T19:20:51.045Z,7.62
2023-05-07T19:22:25.374Z,7.56
2023-05-07T19:23:57.706Z,7.52
2023-05-07T19:25:29.612Z,7.48
2023-05-07T19:27:01.868Z,7.47
2023-05-07T19:28:34.769Z,7.43
2023-05-07T19:30:08.576Z,7.39
2023-05-07T19:31:40.780Z,7.37
2023-05-07T19:33:12.781Z,7.34
2023-05-07T19:34:44.666Z,7.32
2023-05-07T19:36:17.493Z,7.31
2023-05-07T19:37:49.401Z,7.29
2023-05-07T19:39:21.326Z,7.28
2023-05-07T19:40:54.370Z,7.25
2023-05-07T19:42:26.298Z,7.23
2023-05-07T19:43:58.249Z,7.20
2023-05-07T19:45:30.173Z,7.17
2023-05-07T19:47:02.591Z,7.15
2023-05-07T19:48:34.389Z,7.13
2023-05-07T19:50:06.999Z,7.12
2023-05-07T19:51:38.875Z,7.08
2023-05-07T19:53:11.055Z,7.08
2023-05-07T19:54:42.982Z,7.03
2023-05-07T19:56:16.029Z,7.01
2023-05-07T19:57:50.319Z,6.99
2023-05-07T19:59:23.546Z,6.96
2023-05-07T20:00:55.487Z,6.94
2023-05-07T20:02:27.614Z,6.90
2023-05-07T20:04:00.053Z,6.88
2023-05-07T20:05:32.169Z,6.85
2023-05-07T20:07:06.850Z,6.83
2023-05-07T20:08:38.774Z,6.81
2023-05-07T20:10:11.040Z,6.80
2023-05-07T20:11:43.016Z,6.78
2023-05-07T20:13:15.007Z,6.76
2023-05-07T20:14:46.920Z,6.74
2023-05-07T20:16:18.938Z,6.73
2023-05-07T20:17:51.025Z,6.71
2023-05-07T20:19:23.061Z,6.69
2023-05-07T20:20:55.527Z,6.68
2023-05-07T20:22:30.496Z,6.65
2023-05-07T20:24:02.647Z,6.63
2023-05-07T20:25:34.497Z,6.62
2023-05-07T20:27:06.405Z,6.59
2023-05-07T20:28:38.441Z,6.57
2023-05-07T20:30:11.633Z,6.55
2023-05-07T20:31:44.003Z,6.53